Time;durP1;ratioP1;P1;durP2;ratioP2;P2;SDS_P1;SDS_P2;PMS_P1;PMS_P2;Temp;Humidity;BMP_temperature;BMP_pressure;BME280_temperature;BME280_humidity;BME280_pressure;Samples;Min_cycle;Max_cycle;Signal;HPM_P1;HPM_P2
2020/12/09 00:01:50;;;;;;;4.28;1.60;;;;;;;;;;5055064;28;20056;-66
2020/12/09 00:04:16;;;;;;;3.47;1.30;;;;;;;;;;5055064;28;20025;-67
2020/12/09 00:06:43;;;;;;;4.18;2.03;;;;;;;;;;5055078;28;20100;-67
2020/12/09 00:09:14;;;;;;;6.28;3.13;;;;;;;;;;5054939;28;20033;-66
2020/12/09 00:11:40;;;;;;;7.63;2.35;;;;;;;;;;5055177;28;20037;-66
2020/12/09 00:14:07;;;;;;;5.45;2.50;;;;;;;;;;5054889;28;20048;-67
2020/12/09 00:16:33;;;;;;;3.25;1.45;;;;;;;;;;5054895;28;20527;-66
2020/12/09 00:19:03;;;;;;;3.80;1.70;;;;;;;;;;5055011;28;20027;-67
2020/12/09 00:21:29;;;;;;;4.22;1.60;;;;;;;;;;5054849;28;20405;-67
2020/12/09 00:23:55;;;;;;;3.63;1.70;;;;;;;;;;5054665;28;20453;-68
2020/12/09 00:26:22;;;;;;;4.72;1.70;;;;;;;;;;5053561;28;20021;-67
2020/12/09 00:28:48;;;;;;;3.30;1.40;;;;;;;;;;5054551;28;20017;-67
2020/12/09 00:31:18;;;;;;;2.42;1.30;;;;;;;;;;5054542;28;20571;-67
2020/12/09 00:33:46;;;;;;;3.40;0.90;;;;;;;;;;5054734;28;20389;-67
2020/12/09 00:36:19;;;;;;;3.55;1.17;;;;;;;;;;5054736;28;20055;-66
2020/12/09 00:38:45;;;;;;;2.63;1.17;;;;;;;;;;5054462;28;20523;-68
2020/12/09 00:41:16;;;;;;;2.85;1.15;;;;;;;;;;5054292;28;20037;-66
2020/12/09 00:43:42;;;;;;;2.83;0.75;;;;;;;;;;5054657;28;20041;-66
2020/12/09 00:46:08;;;;;;;2.42;0.52;;;;;;;;;;5054566;28;20029;-66
2020/12/09 00:48:34;;;;;;;2.42;0.70;;;;;;;;;;5056678;28;20028;-68
2020/12/09 00:51:00;;;;;;;2.75;0.90;;;;;;;;;;5054198;28;20465;-68
2020/12/09 00:53:29;;;;;;;1.10;0.55;;;;;;;;;;5054296;28;20072;-66
2020/12/09 00:55:55;;;;;;;1.38;0.50;;;;;;;;;;5054142;28;20021;-67
2020/12/09 00:58:21;;;;;;;2.28;0.90;;;;;;;;;;5053999;28;20032;-67
2020/12/09 01:00:48;;;;;;;2.42;0.70;;;;;;;;;;5053955;28;20025;-67
2020/12/09 01:03:14;;;;;;;2.78;0.70;;;;;;;;;;5053913;28;20096;-67
2020/12/09 01:05:40;;;;;;;1.52;0.40;;;;;;;;;;5053842;28;20396;-66
2020/12/09 01:08:06;;;;;;;3.50;0.68;;;;;;;;;;5053910;28;20032;-67
2020/12/09 01:10:32;;;;;;;1.33;0.50;;;;;;;;;;5053950;28;20435;-67
2020/12/09 01:12:58;;;;;;;1.65;0.70;;;;;;;;;;5053873;28;20033;-67
2020/12/09 01:15:24;;;;;;;2.15;0.60;;;;;;;;;;5053680;28;20059;-67
2020/12/09 01:17:50;;;;;;;2.13;0.50;;;;;;;;;;5053674;28;20025;-68
2020/12/09 01:20:16;;;;;;;1.50;0.50;;;;;;;;;;5053723;28;20025;-67
2020/12/09 01:22:42;;;;;;;5.47;0.60;;;;;;;;;;5053614;28;20025;-67
2020/12/09 01:25:08;;;;;;;1.48;0.63;;;;;;;;;;5053513;28;20430;-67
2020/12/09 01:27:34;;;;;;;1.75;0.50;;;;;;;;;;5053334;28;20029;-66
2020/12/09 01:30:00;;;;;;;1.50;0.55;;;;;;;;;;5053263;28;20043;-66
2020/12/09 01:32:27;;;;;;;1.95;0.57;;;;;;;;;;5053248;28;20112;-66
2020/12/09 01:34:53;;;;;;;3.13;1.17;;;;;;;;;;5053205;28;20024;-67
2020/12/09 01:37:19;;;;;;;1.15;0.40;;;;;;;;;;5052962;28;20031;-68
2020/12/09 01:39:45;;;;;;;3.28;0.70;;;;;;;;;;5052959;28;20171;-66
2020/12/09 01:42:11;;;;;;;2.15;0.55;;;;;;;;;;5051942;28;20035;-67
2020/12/09 01:44:37;;;;;;;0.60;0.30;;;;;;;;;;5053162;28;20373;-67
2020/12/09 01:47:07;;;;;;;1.98;0.50;;;;;;;;;;5053038;28;20028;-67
2020/12/09 01:49:33;;;;;;;1.50;0.50;;;;;;;;;;5053134;28;20048;-67
2020/12/09 01:52:03;;;;;;;3.80;1.35;;;;;;;;;;5052995;28;20102;-68
2020/12/09 01:54:29;;;;;;;1.38;0.40;;;;;;;;;;5052885;28;20036;-67
2020/12/09 01:57:06;;;;;;;391.83;157.85;;;;;;;;;;5052913;28;20031;-67
2020/12/09 01:59:32;;;;;;;404.55;181.38;;;;;;;;;;5052707;28;20096;-69
2020/12/09 02:01:59;;;;;;;397.27;165.88;;;;;;;;;;5052906;28;20021;-67
2020/12/09 02:04:25;;;;;;;1.52;0.40;;;;;;;;;;5052656;28;20032;-67
2020/12/09 02:06:52;;;;;;;2.17;0.40;;;;;;;;;;5052746;28;20151;-66
2020/12/09 02:09:19;;;;;;;3.60;0.38;;;;;;;;;;5051412;28;20060;-66
2020/12/09 02:11:45;;;;;;;2.45;1.02;;;;;;;;;;5052449;28;20095;-67
2020/12/09 02:14:11;;;;;;;3.22;0.43;;;;;;;;;;5052685;28;20100;-66
2020/12/09 02:16:37;;;;;;;1.33;0.40;;;;;;;;;;5052690;28;20013;-66
2020/12/09 02:19:03;;;;;;;384.80;175.38;;;;;;;;;;5052441;28;20861;-67
2020/12/09 02:21:33;;;;;;;0.40;0.10;;;;;;;;;;5052857;28;20104;-67
2020/12/09 02:23:59;;;;;;;2.20;0.30;;;;;;;;;;5051443;28;20103;-68
2020/12/09 02:26:25;;;;;;;12.30;10.70;;;;;;;;;;5052436;28;20024;-67
2020/12/09 02:28:51;;;;;;;2.05;0.55;;;;;;;;;;5052665;28;20025;-68
2020/12/09 02:31:17;;;;;;;1.15;0.40;;;;;;;;;;5050925;28;20025;-66
2020/12/09 02:33:43;;;;;;;395.13;168.05;;;;;;;;;;5052326;28;20112;-66
2020/12/09 02:36:10;;;;;;;402.45;175.95;;;;;;;;;;5052559;28;20013;-66
2020/12/09 02:38:36;;;;;;;445.92;301.17;;;;;;;;;;5050880;28;20384;-65
2020/12/09 02:41:02;;;;;;;315.05;165.23;;;;;;;;;;5052277;28;20100;-66
2020/12/09 02:43:28;;;;;;;0.85;0.40;;;;;;;;;;5052189;28;20477;-66
2020/12/09 02:45:54;;;;;;;9.95;8.90;;;;;;;;;;5052224;28;20086;-67
2020/12/09 02:48:20;;;;;;;384.67;137.18;;;;;;;;;;5052081;28;20021;-66
2020/12/09 02:50:46;;;;;;;2.90;0.90;;;;;;;;;;5051363;28;20037;-66
2020/12/09 02:53:12;;;;;;;403.70;181.60;;;;;;;;;;5051986;28;20071;-66
2020/12/09 02:55:38;;;;;;;435.88;278.77;;;;;;;;;;5050631;28;20399;-66
2020/12/09 02:58:04;;;;;;;398.90;180.95;;;;;;;;;;5051999;28;20067;-66
2020/12/09 03:00:30;;;;;;;441.23;290.98;;;;;;;;;;5050677;28;20387;-66
2020/12/09 03:02:57;;;;;;;447.02;315.77;;;;;;;;;;5066007;28;20376;-66
2020/12/09 03:05:23;;;;;;;446.83;321.08;;;;;;;;;;5050735;28;20463;-68
2020/12/09 03:07:49;;;;;;;449.73;333.98;;;;;;;;;;5050526;28;20368;-67
2020/12/09 03:10:15;;;;;;;107.43;56.80;;;;;;;;;;5051913;28;20446;-67
2020/12/09 03:12:41;;;;;;;447.23;321.02;;;;;;;;;;5050521;28;20422;-68
2020/12/09 03:15:07;;;;;;;450.70;336.73;;;;;;;;;;5050551;28;20461;-67
2020/12/09 03:17:33;;;;;;;452.35;344.00;;;;;;;;;;5050445;28;20392;-67
2020/12/09 03:19:59;;;;;;;451.27;339.05;;;;;;;;;;5050416;28;20379;-67
2020/12/09 03:22:25;;;;;;;450.92;340.05;;;;;;;;;;5050492;28;20380;-67
2020/12/09 03:24:51;;;;;;;404.83;203.18;;;;;;;;;;5051633;28;20057;-67
2020/12/09 03:27:18;;;;;;;439.08;305.10;;;;;;;;;;5050449;28;20883;-67
2020/12/09 03:29:44;;;;;;;443.05;319.67;;;;;;;;;;5065981;28;20384;-67
2020/12/09 03:32:10;;;;;;;445.33;326.98;;;;;;;;;;5065685;28;20404;-68
2020/12/09 03:34:36;;;;;;;446.10;332.80;;;;;;;;;;5050424;28;20852;-67
2020/12/09 03:37:02;;;;;;;453.03;354.90;;;;;;;;;;5050095;28;20360;-67
2020/12/09 03:39:28;;;;;;;406.17;201.45;;;;;;;;;;5051523;28;20041;-67
2020/12/09 03:41:54;;;;;;;441.23;304.20;;;;;;;;;;5050336;28;20384;-67
2020/12/09 03:44:20;;;;;;;445.17;323.20;;;;;;;;;;5065929;28;20876;-67
2020/12/09 03:46:46;;;;;;;445.67;323.02;;;;;;;;;;5050475;28;20390;-67
2020/12/09 03:49:13;;;;;;;446.98;329.42;;;;;;;;;;5050339;28;20368;-67
2020/12/09 03:51:39;;;;;;;403.73;202.73;;;;;;;;;;5052141;28;20124;-67
2020/12/09 03:54:05;;;;;;;440.00;303.27;;;;;;;;;;5050120;28;20374;-66
2020/12/09 03:56:31;;;;;;;445.17;326.20;;;;;;;;;;5050318;28;20380;-66
2020/12/09 03:58:57;;;;;;;445.70;327.25;;;;;;;;;;5050272;28;20379;-67
2020/12/09 04:01:23;;;;;;;443.50;322.77;;;;;;;;;;5051549;28;20462;-67
2020/12/09 04:03:49;;;;;;;442.87;320.50;;;;;;;;;;5053814;28;20394;-67
2020/12/09 04:06:15;;;;;;;2.53;0.50;;;;;;;;;;5055147;28;20652;-67
2020/12/09 04:08:41;;;;;;;1.52;0.10;;;;;;;;;;5055317;28;20052;-68
2020/12/09 04:11:07;;;;;;;0.75;0.20;;;;;;;;;;5053627;28;20024;-66
2020/12/09 04:13:33;;;;;;;2.58;0.43;;;;;;;;;;5054819;28;20488;-67
2020/12/09 04:15:59;;;;;;;1.35;0.40;;;;;;;;;;5054925;28;20025;-66
2020/12/09 04:18:26;;;;;;;3.63;0.47;;;;;;;;;;5053594;28;20049;-66
2020/12/09 04:20:52;;;;;;;1.27;0.20;;;;;;;;;;5054852;28;20040;-67
2020/12/09 04:23:18;;;;;;;1.38;0.63;;;;;;;;;;5054847;28;20032;-67
2020/12/09 04:25:44;;;;;;;0.95;0.32;;;;;;;;;;5054817;28;20422;-67
2020/12/09 04:28:10;;;;;;;0.57;0.30;;;;;;;;;;5054653;28;20036;-67
2020/12/09 04:30:36;;;;;;;0.90;0.20;;;;;;;;;;5054571;28;20488;-67
2020/12/09 04:33:02;;;;;;;0.50;0.20;;;;;;;;;;5054595;28;20065;-67
2020/12/09 04:35:28;;;;;;;1.20;0.20;;;;;;;;;;5054516;28;20100;-68
2020/12/09 04:37:55;;;;;;;3.70;0.30;;;;;;;;;;5054303;28;20055;-67
2020/12/09 04:40:24;;;;;;;2.00;0.25;;;;;;;;;;5054175;28;20028;-67
2020/12/09 04:42:57;;;;;;;1.55;0.55;;;;;;;;;;5054510;28;20032;-66
2020/12/09 04:45:23;;;;;;;2.92;0.30;;;;;;;;;;5054267;28;20017;-67
2020/12/09 04:47:56;;;;;;;1.20;0.30;;;;;;;;;;5054288;28;20090;-68
2020/12/09 04:50:27;;;;;;;2.08;0.30;;;;;;;;;;5054237;28;20096;-67
2020/12/09 04:53:03;;;;;;;2.05;0.40;;;;;;;;;;5053956;28;20029;-68
2020/12/09 04:55:32;;;;;;;2.70;0.20;;;;;;;;;;5054174;28;20031;-68
2020/12/09 04:58:14;;;;;;;1.15;0.47;;;;;;;;;;5054057;28;20052;-67
2020/12/09 05:00:41;;;;;;;3.30;0.35;;;;;;;;;;5053907;28;20029;-68
2020/12/09 05:03:15;;;;;;;0.47;0.20;;;;;;;;;;5053943;28;20020;-67
2020/12/09 05:05:41;;;;;;;2.60;0.45;;;;;;;;;;5053979;28;20100;-67
2020/12/09 05:08:12;;;;;;;1.63;0.40;;;;;;;;;;5053736;28;20025;-67
2020/12/09 05:10:45;;;;;;;1.58;0.30;;;;;;;;;;5053809;28;20029;-66
2020/12/09 05:13:12;;;;;;;1.58;0.30;;;;;;;;;;5053370;28;20443;-67
2020/12/09 05:15:39;;;;;;;1.13;0.38;;;;;;;;;;5053760;28;20025;-67
2020/12/09 05:18:10;;;;;;;2.92;0.77;;;;;;;;;;5053844;28;20033;-67
2020/12/09 05:20:37;;;;;;;9.20;4.70;;;;;;;;;;5054117;28;20488;-67
2020/12/09 05:23:04;;;;;;;9.85;4.82;;;;;;;;;;5054147;28;20041;-66
2020/12/09 05:25:31;;;;;;;5.30;2.40;;;;;;;;;;5053588;28;20051;-66
2020/12/09 05:27:57;;;;;;;5.00;1.58;;;;;;;;;;5053506;28;20466;-67
2020/12/09 05:30:41;;;;;;;2.55;1.17;;;;;;;;;;5053459;28;20033;-67
2020/12/09 05:33:07;;;;;;;3.30;1.35;;;;;;;;;;5053236;28;20456;-66
2020/12/09 05:35:33;;;;;;;1.73;0.60;;;;;;;;;;5053508;28;20079;-69
2020/12/09 05:38:13;;;;;;;1.90;0.80;;;;;;;;;;5053338;28;20112;-69
2020/12/09 05:40:40;;;;;;;6.95;1.10;;;;;;;;;;5052948;28;20436;-66
2020/12/09 05:43:07;;;;;;;2.90;1.15;;;;;;;;;;5052530;28;20430;-65
2020/12/09 05:45:33;;;;;;;3.33;1.50;;;;;;;;;;5051522;28;20032;-67
2020/12/09 05:48:11;;;;;;;3.58;1.65;;;;;;;;;;5051695;28;20021;-68
2020/12/09 05:50:47;;;;;;;4.40;1.70;;;;;;;;;;5050655;28;20048;-68
2020/12/09 05:53:15;;;;;;;5.95;2.25;;;;;;;;;;5050240;28;20098;-67
2020/12/09 05:55:41;;;;;;;4.30;1.85;;;;;;;;;;5051026;28;20038;-68
2020/12/09 05:58:26;;;;;;;3.90;1.73;;;;;;;;;;5052811;28;20472;-70
2020/12/09 06:01:11;;;;;;;4.60;1.30;;;;;;;;;;5052962;28;20486;-67
2020/12/09 06:03:38;;;;;;;2.10;1.20;;;;;;;;;;5053031;28;20033;-68
2020/12/09 06:06:14;;;;;;;4.35;1.30;;;;;;;;;;5052747;28;20029;-68
2020/12/09 06:08:41;;;;;;;5.38;1.42;;;;;;;;;;5052763;28;20028;-67
2020/12/09 06:11:08;;;;;;;4.45;1.60;;;;;;;;;;5052659;28;20120;-67
2020/12/09 06:13:34;;;;;;;4.43;1.50;;;;;;;;;;5052810;28;20024;-69
2020/12/09 06:16:05;;;;;;;2.95;1.35;;;;;;;;;;5052634;28;20044;-68
2020/12/09 06:18:31;;;;;;;5.60;2.00;;;;;;;;;;5052671;28;20492;-68
2020/12/09 06:20:58;;;;;;;5.63;2.33;;;;;;;;;;5052697;28;20063;-69
2020/12/09 06:23:28;;;;;;;5.53;2.00;;;;;;;;;;5067869;28;20045;-68
2020/12/09 06:25:57;;;;;;;5.40;1.90;;;;;;;;;;5051571;28;20025;-67
2020/12/09 06:28:24;;;;;;;5.05;1.83;;;;;;;;;;5052470;28;20032;-68
2020/12/09 06:30:51;;;;;;;3.85;1.73;;;;;;;;;;5051912;28;20112;-68
2020/12/09 06:33:32;;;;;;;6.22;1.98;;;;;;;;;;5052012;28;20052;-68
2020/12/09 06:36:19;;;;;;;4.88;1.77;;;;;;;;;;5045040;28;20098;-68
2020/12/09 06:39:04;;;;;;;5.78;2.00;;;;;;;;;;5049073;28;20037;-65
2020/12/09 06:41:30;;;;;;;6.10;1.48;;;;;;;;;;5049797;28;20091;-68
2020/12/09 06:44:02;;;;;;;4.07;1.60;;;;;;;;;;5048377;28;20385;-68
2020/12/09 06:46:57;;;;;;;3.90;1.85;;;;;;;;;;5051194;28;20021;-68
2020/12/09 06:49:30;;;;;;;5.32;1.48;;;;;;;;;;5032047;28;20499;-70
2020/12/09 06:51:56;;;;;;;3.83;1.20;;;;;;;;;;5066403;28;20484;-70
2020/12/09 06:54:35;;;;;;;4.30;1.40;;;;;;;;;;5053692;28;20024;-70
2020/12/09 06:57:14;;;;;;;3.35;1.10;;;;;;;;;;5049849;28;20396;-67
2020/12/09 06:59:40;;;;;;;4.15;1.30;;;;;;;;;;5051374;28;20052;-62
2020/12/09 07:02:07;;;;;;;5.80;1.83;;;;;;;;;;5051800;28;20083;-64
2020/12/09 07:05:00;;;;;;;3.42;1.15;;;;;;;;;;5051620;28;20357;-62
2020/12/09 07:07:26;;;;;;;3.25;1.27;;;;;;;;;;5050425;28;20038;-63
2020/12/09 07:09:52;;;;;;;4.53;1.00;;;;;;;;;;5051691;28;20017;-62
2020/12/09 07:12:19;;;;;;;3.50;1.15;;;;;;;;;;5050835;28;20488;-63
2020/12/09 07:14:48;;;;;;;6.53;1.92;;;;;;;;;;5049773;28;20032;-62
2020/12/09 07:17:16;;;;;;;336.75;167.32;;;;;;;;;;5051269;28;20039;-62
2020/12/09 07:19:42;;;;;;;5.95;1.10;;;;;;;;;;5051797;28;20029;-63
2020/12/09 07:22:08;;;;;;;6.47;1.42;;;;;;;;;;5051990;28;20033;-63
2020/12/09 07:24:34;;;;;;;3.80;1.23;;;;;;;;;;5050705;28;20021;-62
2020/12/09 07:27:00;;;;;;;3.05;1.05;;;;;;;;;;5049721;28;20047;-63
2020/12/09 07:29:27;;;;;;;5.22;1.27;;;;;;;;;;5049464;28;20017;-62
2020/12/09 07:31:59;;;;;;;2.63;0.98;;;;;;;;;;5049667;28;20036;-62
2020/12/09 07:34:25;;;;;;;3.03;1.10;;;;;;;;;;5050793;28;20051;-63
2020/12/09 07:36:53;;;;;;;3.35;1.02;;;;;;;;;;5052196;28;20066;-63
2020/12/09 07:39:29;;;;;;;4.93;1.17;;;;;;;;;;5068981;28;20039;-62
2020/12/09 07:41:57;;;;;;;4.38;0.93;;;;;;;;;;5055599;28;20080;-61
2020/12/09 07:44:24;;;;;;;4.82;1.27;;;;;;;;;;5055649;28;20028;-62
2020/12/09 07:46:53;;;;;;;4.63;1.50;;;;;;;;;;5055957;28;20036;-63
2020/12/09 07:49:19;;;;;;;3.63;0.70;;;;;;;;;;5055424;28;20037;-63
2020/12/09 07:51:45;;;;;;;3.90;1.00;;;;;;;;;;5055266;28;20373;-63
2020/12/09 07:54:12;;;;;;;2.75;0.90;;;;;;;;;;5055337;28;20093;-63
2020/12/09 07:56:38;;;;;;;3.08;1.17;;;;;;;;;;5055150;28;20503;-63
2020/12/09 07:59:04;;;;;;;2.95;1.00;;;;;;;;;;5055130;28;20167;-63
2020/12/09 08:01:30;;;;;;;3.65;1.67;;;;;;;;;;5055526;28;20481;-63
2020/12/09 08:03:56;;;;;;;2.40;1.00;;;;;;;;;;5055230;28;20025;-63
2020/12/09 08:06:23;;;;;;;4.43;1.83;;;;;;;;;;5055177;28;20078;-62
2020/12/09 08:08:50;;;;;;;404.25;177.85;;;;;;;;;;5055248;28;20111;-63
2020/12/09 08:11:17;;;;;;;4.47;1.45;;;;;;;;;;5054898;28;20515;-62
2020/12/09 08:13:43;;;;;;;6.85;1.83;;;;;;;;;;5054970;28;20055;-63
2020/12/09 08:16:11;;;;;;;6.68;2.53;;;;;;;;;;5055004;28;20044;-62
2020/12/09 08:18:42;;;;;;;7.70;3.88;;;;;;;;;;5054738;28;20028;-63
2020/12/09 08:21:09;;;;;;;8.65;2.55;;;;;;;;;;5069988;28;20060;-63
2020/12/09 08:23:38;;;;;;;7.57;2.13;;;;;;;;;;5054803;28;20605;-63
2020/12/09 08:26:04;;;;;;;7.38;2.00;;;;;;;;;;5054769;28;20032;-65
2020/12/09 08:28:33;;;;;;;3.38;1.40;;;;;;;;;;5054819;28;20021;-63
2020/12/09 08:30:59;;;;;;;5.90;1.73;;;;;;;;;;5054533;28;20075;-63
2020/12/09 08:33:26;;;;;;;3.75;1.65;;;;;;;;;;5054715;28;20029;-63
2020/12/09 08:36:07;;;;;;;4.90;1.73;;;;;;;;;;5054680;28;20560;-63
2020/12/09 08:38:41;;;;;;;4.57;1.38;;;;;;;;;;5054365;28;20033;-62
2020/12/09 08:41:30;;;;;;;3.78;1.25;;;;;;;;;;5057873;28;20029;-60
2020/12/09 08:44:00;;;;;;;4.03;1.30;;;;;;;;;;5045426;28;20045;-69
2020/12/09 08:46:28;;;;;;;5.78;1.38;;;;;;;;;;5051432;28;20025;-62
2020/12/09 08:48:54;;;;;;;9.40;2.92;;;;;;;;;;5048232;28;20032;-61
2020/12/09 08:51:28;;;;;;;4.70;1.60;;;;;;;;;;5053726;28;20033;-61
2020/12/09 08:53:54;;;;;;;5.80;2.03;;;;;;;;;;5053364;28;20056;-61
2020/12/09 08:56:27;;;;;;;4.13;1.83;;;;;;;;;;5054180;28;20024;-60
2020/12/09 08:58:53;;;;;;;5.20;1.58;;;;;;;;;;5054538;28;20055;-62
2020/12/09 09:01:19;;;;;;;5.47;1.55;;;;;;;;;;5053891;28;20042;-62
2020/12/09 09:03:47;;;;;;;385.35;162.82;;;;;;;;;;5053890;28;20392;-62
2020/12/09 09:06:13;;;;;;;402.88;176.60;;;;;;;;;;5053536;28;20013;-62
2020/12/09 09:08:39;;;;;;;448.60;299.33;;;;;;;;;;5052259;28;20387;-63
2020/12/09 09:11:05;;;;;;;455.08;339.77;;;;;;;;;;5052410;28;20544;-63
2020/12/09 09:13:34;;;;;;;460.20;356.88;;;;;;;;;;5053397;28;20402;-62
2020/12/09 09:16:09;;;;;;;459.53;356.00;;;;;;;;;;5068523;28;20394;-64
2020/12/09 09:18:36;;;;;;;462.63;366.27;;;;;;;;;;5052068;28;20536;-65
2020/12/09 09:21:02;;;;;;;466.55;377.05;;;;;;;;;;5052185;28;20475;-64
2020/12/09 09:23:28;;;;;;;472.85;396.90;;;;;;;;;;5052095;28;20399;-67
2020/12/09 09:25:54;;;;;;;479.02;402.30;;;;;;;;;;5052482;28;20384;-67
2020/12/09 09:28:21;;;;;;;478.25;406.13;;;;;;;;;;5052290;28;20376;-66
2020/12/09 09:30:47;;;;;;;399.40;193.95;;;;;;;;;;5053276;28;20063;-66
2020/12/09 09:33:13;;;;;;;431.02;243.10;;;;;;;;;;5053508;28;20033;-65
2020/12/09 09:35:39;;;;;;;421.70;214.52;;;;;;;;;;5053301;28;20025;-67
2020/12/09 09:38:05;;;;;;;418.52;213.05;;;;;;;;;;5053211;28;20029;-65
2020/12/09 09:40:31;;;;;;;461.73;352.83;;;;;;;;;;5051651;28;20498;-64
2020/12/09 09:42:57;;;;;;;470.80;403.20;;;;;;;;;;5067195;28;20380;-65
2020/12/09 09:45:25;;;;;;;473.00;414.88;;;;;;;;;;5051581;28;20692;-65
2020/12/09 09:47:51;;;;;;;426.85;244.93;;;;;;;;;;5068461;28;20055;-65
2020/12/09 09:50:17;;;;;;;464.80;368.40;;;;;;;;;;5051830;28;20386;-65
2020/12/09 09:52:43;;;;;;;415.50;226.10;;;;;;;;;;5048129;28;20040;-68
2020/12/09 09:55:09;;;;;;;8.45;3.47;;;;;;;;;;5051988;28;20456;-61
2020/12/09 09:57:36;;;;;;;11.48;5.20;;;;;;;;;;5051330;28;20025;-61
2020/12/09 10:00:04;;;;;;;14.10;6.65;;;;;;;;;;5051403;28;20052;-61
2020/12/09 10:02:31;;;;;;;12.65;6.68;;;;;;;;;;5050694;28;20021;-61
2020/12/09 10:04:58;;;;;;;14.02;6.78;;;;;;;;;;5050820;28;20496;-60
2020/12/09 10:07:24;;;;;;;16.17;7.47;;;;;;;;;;5050608;28;20420;-59
2020/12/09 10:09:50;;;;;;;4.40;1.80;;;;;;;;;;5050831;28;20043;-68
2020/12/09 10:12:16;;;;;;;8.63;3.53;;;;;;;;;;5049512;28;20548;-65
2020/12/09 10:14:43;;;;;;;5.32;2.38;;;;;;;;;;5049122;28;20472;-64
2020/12/09 10:17:09;;;;;;;4.03;1.60;;;;;;;;;;5051205;28;20028;-63
2020/12/09 10:19:35;;;;;;;4.00;1.92;;;;;;;;;;5052636;28;20469;-62
2020/12/09 10:22:01;;;;;;;4.25;1.35;;;;;;;;;;5052637;28;20029;-62
2020/12/09 10:24:28;;;;;;;4.80;2.35;;;;;;;;;;5052737;28;20028;-64
2020/12/09 10:26:54;;;;;;;9.35;5.25;;;;;;;;;;5051254;28;20120;-65
2020/12/09 10:29:21;;;;;;;14.98;7.47;;;;;;;;;;5051404;28;20508;-63
2020/12/09 10:31:47;;;;;;;13.75;7.03;;;;;;;;;;5052363;28;20473;-64
2020/12/09 10:34:15;;;;;;;19.05;10.13;;;;;;;;;;5052449;28;20037;-62
2020/12/09 10:36:48;;;;;;;16.70;9.18;;;;;;;;;;5052680;28;20017;-64
2020/12/09 10:39:14;;;;;;;13.52;7.53;;;;;;;;;;5052172;28;20082;-62
2020/12/09 10:41:41;;;;;;;13.43;5.78;;;;;;;;;;5052367;28;20021;-62
2020/12/09 10:44:07;;;;;;;16.30;8.10;;;;;;;;;;5052417;28;20025;-60
2020/12/09 10:46:35;;;;;;;12.95;6.55;;;;;;;;;;5052307;28;20033;-61
2020/12/09 10:49:01;;;;;;;9.95;4.40;;;;;;;;;;5052383;28;20029;-60
2020/12/09 10:51:28;;;;;;;7.65;2.72;;;;;;;;;;5052263;28;20469;-60
2020/12/09 10:53:54;;;;;;;6.88;3.38;;;;;;;;;;5050913;28;20183;-64
2020/12/09 10:56:31;;;;;;;4.60;1.80;;;;;;;;;;5052223;28;20457;-65
2020/12/09 10:58:58;;;;;;;5.07;1.85;;;;;;;;;;5052262;28;20025;-64
2020/12/09 11:01:27;;;;;;;5.65;2.13;;;;;;;;;;5052320;28;20029;-63
2020/12/09 11:03:54;;;;;;;3.55;1.38;;;;;;;;;;5052001;28;20097;-63
2020/12/09 11:06:27;;;;;;;9.07;4.60;;;;;;;;;;5052155;28;20025;-63
2020/12/09 11:08:53;;;;;;;10.57;5.10;;;;;;;;;;5052187;28;20462;-64
2020/12/09 11:11:19;;;;;;;12.25;5.18;;;;;;;;;;5053566;28;20048;-66
2020/12/09 11:13:45;;;;;;;6.18;3.25;;;;;;;;;;5056281;28;20045;-67
2020/12/09 11:16:17;;;;;;;4.80;2.50;;;;;;;;;;5054901;28;20431;-65
2020/12/09 11:18:43;;;;;;;3.60;1.25;;;;;;;;;;5056410;28;20029;-68
2020/12/09 11:21:10;;;;;;;4.88;1.65;;;;;;;;;;5056120;28;20100;-67
2020/12/09 11:23:36;;;;;;;5.68;1.70;;;;;;;;;;5056206;28;20036;-66
2020/12/09 11:26:07;;;;;;;4.28;1.30;;;;;;;;;;5057915;28;20029;-66
2020/12/09 11:28:33;;;;;;;5.50;1.90;;;;;;;;;;5056182;28;20025;-68
2020/12/09 11:30:59;;;;;;;5.43;2.25;;;;;;;;;;5054506;28;20527;-69
2020/12/09 11:33:25;;;;;;;6.25;2.72;;;;;;;;;;5056076;28;20032;-68
2020/12/09 11:35:51;;;;;;;11.25;5.20;;;;;;;;;;5056027;28;20122;-69
2020/12/09 11:38:18;;;;;;;13.02;6.50;;;;;;;;;;5053911;28;20504;-69
2020/12/09 11:40:44;;;;;;;13.30;7.22;;;;;;;;;;5055629;28;20111;-68
2020/12/09 11:43:10;;;;;;;11.05;5.53;;;;;;;;;;5055635;28;20021;-67
2020/12/09 11:45:37;;;;;;;9.25;3.67;;;;;;;;;;5055529;28;20036;-65
2020/12/09 11:48:03;;;;;;;6.70;3.53;;;;;;;;;;5055702;28;20029;-66
2020/12/09 11:50:29;;;;;;;8.77;3.53;;;;;;;;;;5055526;28;20029;-64
2020/12/09 11:52:55;;;;;;;12.63;6.88;;;;;;;;;;5055187;28;20033;-61
2020/12/09 11:55:22;;;;;;;6.68;3.63;;;;;;;;;;5057159;28;20024;-62
2020/12/09 11:57:48;;;;;;;4.53;2.17;;;;;;;;;;5055522;28;20036;-63
2020/12/09 12:00:14;;;;;;;4.65;1.90;;;;;;;;;;5055518;28;20099;-62
2020/12/09 12:02:40;;;;;;;4.78;1.10;;;;;;;;;;5055171;28;20150;-62
2020/12/09 12:05:08;;;;;;;3.03;0.82;;;;;;;;;;5055397;28;20481;-63
2020/12/09 12:07:36;;;;;;;4.55;1.30;;;;;;;;;;5055227;28;20021;-63
2020/12/09 12:10:03;;;;;;;2.25;0.93;;;;;;;;;;5055158;28;20021;-66
2020/12/09 12:12:30;;;;;;;2.13;1.00;;;;;;;;;;5053707;28;20120;-67
2020/12/09 12:14:56;;;;;;;2.33;0.98;;;;;;;;;;5054903;28;20380;-64
2020/12/09 12:17:22;;;;;;;3.17;1.65;;;;;;;;;;5055059;28;20032;-62
2020/12/09 12:19:48;;;;;;;10.02;3.90;;;;;;;;;;5055114;28;20025;-64
2020/12/09 12:22:15;;;;;;;6.93;3.75;;;;;;;;;;5054949;28;20029;-63
2020/12/09 12:24:41;;;;;;;8.50;3.85;;;;;;;;;;5054836;28;20469;-62
2020/12/09 12:27:07;;;;;;;11.40;4.68;;;;;;;;;;5054905;28;20032;-62
2020/12/09 12:29:33;;;;;;;6.95;2.42;;;;;;;;;;5054785;28;20492;-66
2020/12/09 12:31:59;;;;;;;4.65;2.72;;;;;;;;;;5054807;28;20052;-66
2020/12/09 12:34:26;;;;;;;12.30;7.07;;;;;;;;;;5054845;28;20028;-62
2020/12/09 12:36:55;;;;;;;16.33;7.60;;;;;;;;;;5054330;28;20472;-67
2020/12/09 12:39:21;;;;;;;11.93;5.90;;;;;;;;;;5054374;28;20029;-67
2020/12/09 12:41:47;;;;;;;14.82;5.90;;;;;;;;;;5053657;28;20452;-67
2020/12/09 12:44:13;;;;;;;18.77;6.03;;;;;;;;;;5054362;28;20025;-69
2020/12/09 12:46:40;;;;;;;12.00;4.95;;;;;;;;;;5054621;28;20043;-70
2020/12/09 12:49:06;;;;;;;10.40;3.45;;;;;;;;;;5054412;28;20372;-68
2020/12/09 12:51:32;;;;;;;7.25;2.58;;;;;;;;;;5054094;28;20033;-69
2020/12/09 12:53:58;;;;;;;4.93;1.80;;;;;;;;;;5053224;28;20111;-71
2020/12/09 12:56:24;;;;;;;3.40;1.40;;;;;;;;;;5055746;28;20017;-70
2020/12/09 12:58:50;;;;;;;3.03;1.15;;;;;;;;;;5054555;28;20025;-71
2020/12/09 13:01:17;;;;;;;5.65;1.58;;;;;;;;;;5054471;28;20033;-69
2020/12/09 13:03:43;;;;;;;5.63;2.00;;;;;;;;;;5054210;28;20024;-69
2020/12/09 13:06:09;;;;;;;14.35;5.63;;;;;;;;;;5055274;28;20033;-68
2020/12/09 13:08:39;;;;;;;32.85;7.03;;;;;;;;;;5055339;28;20018;-66
2020/12/09 13:11:08;;;;;;;13.55;4.75;;;;;;;;;;5055405;28;20029;-69
2020/12/09 13:13:35;;;;;;;16.17;4.78;;;;;;;;;;5054032;28;20028;-64
2020/12/09 13:16:02;;;;;;;12.70;4.13;;;;;;;;;;5053964;28;20025;-62
2020/12/09 13:18:29;;;;;;;9.15;3.10;;;;;;;;;;5053874;28;20032;-65
2020/12/09 13:20:55;;;;;;;12.15;4.70;;;;;;;;;;5053969;28;20060;-63
2020/12/09 13:23:21;;;;;;;7.47;3.65;;;;;;;;;;5053741;28;20123;-63
2020/12/09 13:25:47;;;;;;;7.43;2.55;;;;;;;;;;5053758;28;20493;-66
2020/12/09 13:28:13;;;;;;;5.63;2.45;;;;;;;;;;5053741;28;20033;-66
2020/12/09 13:30:40;;;;;;;4.63;2.10;;;;;;;;;;5053787;28;20082;-64
2020/12/09 13:33:09;;;;;;;5.20;1.65;;;;;;;;;;5052223;28;20116;-65
2020/12/09 13:35:35;;;;;;;7.90;2.60;;;;;;;;;;5053125;28;20071;-64
2020/12/09 13:38:02;;;;;;;12.02;3.50;;;;;;;;;;5054101;28;20057;-65
2020/12/09 13:40:28;;;;;;;31.17;7.35;;;;;;;;;;5053344;28;20044;-67
2020/12/09 13:42:54;;;;;;;37.15;11.20;;;;;;;;;;5052164;28;20544;-66
2020/12/09 13:45:20;;;;;;;45.67;10.95;;;;;;;;;;5053318;28;20028;-65
2020/12/09 13:47:46;;;;;;;40.22;10.85;;;;;;;;;;5068522;28;20025;-66
2020/12/09 13:50:12;;;;;;;28.23;8.93;;;;;;;;;;5053424;28;20064;-63
2020/12/09 13:52:38;;;;;;;32.45;10.40;;;;;;;;;;5054549;28;20029;-62
2020/12/09 13:55:05;;;;;;;18.50;6.60;;;;;;;;;;5053271;28;20066;-65
2020/12/09 13:57:32;;;;;;;12.45;5.00;;;;;;;;;;5052008;28;20021;-68
2020/12/09 13:59:58;;;;;;;11.73;4.32;;;;;;;;;;5053077;28;20103;-66
2020/12/09 14:02:24;;;;;;;10.82;3.40;;;;;;;;;;5053129;28;20066;-65
2020/12/09 14:04:50;;;;;;;9.77;2.42;;;;;;;;;;5053164;28;20024;-66
2020/12/09 14:07:16;;;;;;;6.15;2.38;;;;;;;;;;5053477;28;20536;-65
2020/12/09 14:09:42;;;;;;;11.18;6.28;;;;;;;;;;5052954;28;20017;-66
2020/12/09 14:12:08;;;;;;;9.70;4.57;;;;;;;;;;5052674;28;20382;-65
2020/12/09 14:14:34;;;;;;;6.43;3.25;;;;;;;;;;5052787;28;20025;-62
2020/12/09 14:17:03;;;;;;;5.55;2.58;;;;;;;;;;5052684;28;20017;-64
2020/12/09 14:19:32;;;;;;;;;;;;;;;;;;5053274;28;20384;-66
2020/12/09 14:21:59;;;;;;;8.98;5.55;;;;;;;;;;5052796;28;19911;-66
2020/12/09 14:24:26;;;;;;;10.50;4.63;;;;;;;;;;5052696;28;20021;-66
2020/12/09 14:26:52;;;;;;;8.02;3.83;;;;;;;;;;5052504;28;20088;-63
2020/12/09 14:29:18;;;;;;;6.65;2.45;;;;;;;;;;5054340;28;20424;-66
2020/12/09 14:31:49;;;;;;;5.45;1.90;;;;;;;;;;5053485;28;20033;-66
2020/12/09 14:34:19;;;;;;;4.35;1.67;;;;;;;;;;5052853;28;20381;-64
2020/12/09 14:36:49;;;;;;;3.33;1.40;;;;;;;;;;5052664;28;20170;-63